createdAt,value
2023-05-18T00:00:35.366Z,3.10
2023-05-18T00:03:04.144Z,2.83
2023-05-18T00:05:34.585Z,2.90
2023-05-18T00:08:04.564Z,3.15
2023-05-18T00:10:32.806Z,2.47
2023-05-18T00:13:01.044Z,3.47
2023-05-18T00:15:29.544Z,3.00
2023-05-18T00:17:58.781Z,3.25
2023-05-18T00:20:27.642Z,2.63
2023-05-18T00:22:55.977Z,2.35
2023-05-18T00:25:25.761Z,2.47
2023-05-18T00:27:54.001Z,3.03
2023-05-18T00:30:24.649Z,2.97
2023-05-18T00:32:52.986Z,2.70
2023-05-18T00:35:21.504Z,2.55
2023-05-18T00:37:49.763Z,2.60
2023-05-18T00:40:18.280Z,2.70
2023-05-18T00:42:48.009Z,2.22
2023-05-18T00:45:16.341Z,2.92
2023-05-18T00:47:44.648Z,2.53
2023-05-18T00:50:13.369Z,2.92
2023-05-18T00:52:42.225Z,2.42
2023-05-18T00:55:12.467Z,2.70
2023-05-18T00:57:42.127Z,2.63
2023-05-18T01:00:14.289Z,2.72
2023-05-18T01:02:45.901Z,2.95
2023-05-18T01:05:14.734Z,2.38
2023-05-18T01:07:43.931Z,2.70
2023-05-18T01:10:15.704Z,3.25
2023-05-18T01:12:50.494Z,2.45
2023-05-18T01:15:24.508Z,2.60
2023-05-18T01:18:05.069Z,2.55
2023-05-18T01:20:42.521Z,2.10
2023-05-18T01:23:46.935Z,2.60
2023-05-18T01:26:24.819Z,3.25
2023-05-18T01:28:55.429Z,2.30
2023-05-18T01:31:24.356Z,2.70
2023-05-18T01:33:52.806Z,2.45
2023-05-18T01:36:21.171Z,2.55
2023-05-18T01:38:49.897Z,1.95
2023-05-18T01:41:24.173Z,2.05
2023-05-18T01:44:01.913Z,2.10
2023-05-18T01:46:47.333Z,2.20
2023-05-18T01:49:27.714Z,2.20
2023-05-18T01:51:57.217Z,2.58
2023-05-18T01:54:27.849Z,2.53
2023-05-18T01:56:57.977Z,2.22
2023-05-18T01:59:26.765Z,2.72
2023-05-18T02:01:59.832Z,2.40
2023-05-18T02:04:28.741Z,2.30
2023-05-18T02:06:57.421Z,2.28
2023-05-18T02:09:25.646Z,2.08
2023-05-18T02:11:53.882Z,2.50
2023-05-18T02:14:23.454Z,2.30
2023-05-18T02:16:53.136Z,2.45
2023-05-18T02:19:22.453Z,2.95
2023-05-18T02:21:50.873Z,2.47
2023-05-18T02:24:19.108Z,2.30
2023-05-18T02:26:47.407Z,2.22
2023-05-18T02:29:15.577Z,2.85
2023-05-18T02:31:45.201Z,2.75
2023-05-18T02:34:15.552Z,2.67
2023-05-18T02:36:43.871Z,2.40
2023-05-18T02:39:12.547Z,2.60
2023-05-18T02:41:40.963Z,2.75
2023-05-18T02:44:09.258Z,3.45
2023-05-18T02:46:37.545Z,2.50
2023-05-18T02:49:09.488Z,2.45
2023-05-18T02:51:38.044Z,2.70
2023-05-18T02:54:06.541Z,2.70
2023-05-18T02:56:38.556Z,2.70
2023-05-18T02:59:18.386Z,2.33
2023-05-18T03:01:46.674Z,2.65
2023-05-18T03:04:16.994Z,2.70
2023-05-18T03:06:53.072Z,2.40
2023-05-18T03:09:23.140Z,3.38
2023-05-18T03:11:54.057Z,2.45
2023-05-18T03:14:22.355Z,2.30
2023-05-18T03:16:54.407Z,2.70
2023-05-18T03:19:28.035Z,2.95
2023-05-18T03:21:58.121Z,4.20
2023-05-18T03:24:30.425Z,2.83
2023-05-18T03:27:01.278Z,3.15
2023-05-18T03:29:31.620Z,2.80
2023-05-18T03:32:03.681Z,3.15
2023-05-18T03:34:33.395Z,2.65
2023-05-18T03:37:02.101Z,2.58
2023-05-18T03:39:31.662Z,3.25
2023-05-18T03:41:59.894Z,3.15
2023-05-18T03:44:28.163Z,2.95
2023-05-18T03:46:57.027Z,3.17
2023-05-18T03:49:25.327Z,3.22
2023-05-18T03:51:56.408Z,3.50
2023-05-18T03:54:25.141Z,3.17
2023-05-18T03:56:53.948Z,3.47
2023-05-18T03:59:22.221Z,3.03
2023-05-18T04:01:53.934Z,3.00
2023-05-18T04:04:23.830Z,2.83
2023-05-18T04:06:52.585Z,2.75
2023-05-18T04:09:23.942Z,2.20
2023-05-18T04:11:52.206Z,2.53
2023-05-18T04:14:21.052Z,2.70
2023-05-18T04:16:49.284Z,2.65
2023-05-18T04:19:19.105Z,2.45
2023-05-18T04:21:47.557Z,2.72
2023-05-18T04:24:16.564Z,3.22
2023-05-18T04:26:46.605Z,2.95
2023-05-18T04:29:15.673Z,2.83
2023-05-18T04:31:45.024Z,2.58
2023-05-18T04:34:14.370Z,2.33
2023-05-18T04:36:44.425Z,2.83
2023-05-18T04:39:14.452Z,2.70
2023-05-18T04:41:42.976Z,2.67
2023-05-18T04:44:14.183Z,2.13
2023-05-18T04:46:42.637Z,2.50
2023-05-18T04:49:11.784Z,2.25
2023-05-18T04:51:42.207Z,2.35
2023-05-18T04:54:10.425Z,2.45
2023-05-18T04:56:38.782Z,1.70
2023-05-18T04:59:10.908Z,2.38
2023-05-18T05:01:40.659Z,2.20
2023-05-18T05:04:09.429Z,3.05
2023-05-18T05:06:37.756Z,2.20
2023-05-18T05:09:06.643Z,2.30
2023-05-18T05:11:34.900Z,2.47
2023-05-18T05:14:03.937Z,2.10
2023-05-18T05:16:32.686Z,1.95
2023-05-18T05:19:02.551Z,1.90
2023-05-18T05:21:31.580Z,1.65
2023-05-18T05:24:01.765Z,1.42
2023-05-18T05:26:30.266Z,1.85
2023-05-18T05:28:58.523Z,2.17
2023-05-18T05:31:26.944Z,2.00
2023-05-18T05:33:55.287Z,2.10
2023-05-18T05:36:24.990Z,1.88
2023-05-18T05:38:53.272Z,1.77
2023-05-18T05:41:22.739Z,2.30
2023-05-18T05:43:51.419Z,1.70
2023-05-18T05:46:19.946Z,2.03
2023-05-18T05:48:48.774Z,2.00
2023-05-18T05:51:17.593Z,1.58
2023-05-18T05:53:47.708Z,1.48
2023-05-18T05:56:17.875Z,1.40
2023-05-18T05:58:46.171Z,2.05
2023-05-18T06:01:15.099Z,1.65
2023-05-18T06:03:45.325Z,1.73
2023-05-18T06:06:14.713Z,1.60
2023-05-18T06:08:43.391Z,1.63
2023-05-18T06:11:13.750Z,1.50
2023-05-18T06:13:41.991Z,1.98
2023-05-18T06:16:10.334Z,1.15
2023-05-18T06:18:39.533Z,1.27
2023-05-18T06:21:07.924Z,1.30
2023-05-18T06:23:36.391Z,1.52
2023-05-18T06:26:04.763Z,1.58
2023-05-18T06:28:40.276Z,2.00
2023-05-18T06:31:28.308Z,1.30
2023-05-18T06:34:13.297Z,1.30
2023-05-18T06:36:44.258Z,1.40
2023-05-18T06:39:12.622Z,1.30
2023-05-18T06:41:40.916Z,1.15
2023-05-18T06:44:10.651Z,1.30
2023-05-18T06:46:42.714Z,1.25
2023-05-18T06:49:19.547Z,1.23
2023-05-18T06:51:47.986Z,1.50
2023-05-18T06:54:16.435Z,1.20
2023-05-18T06:56:44.843Z,1.10
2023-05-18T06:59:14.548Z,1.10
2023-05-18T07:01:42.989Z,1.25
2023-05-18T07:04:11.813Z,0.93
2023-05-18T07:06:40.285Z,1.25
2023-05-18T07:09:09.165Z,1.15
2023-05-18T07:11:37.419Z,1.15
2023-05-18T07:14:06.122Z,1.15
2023-05-18T07:16:35.903Z,1.05
2023-05-18T07:19:05.022Z,1.38
2023-05-18T07:21:34.550Z,1.08
2023-05-18T07:24:02.864Z,1.00
2023-05-18T07:26:31.862Z,1.33
2023-05-18T07:29:00.229Z,1.00
2023-05-18T07:31:29.002Z,1.20
2023-05-18T07:33:58.669Z,1.02
2023-05-18T07:36:28.694Z,1.00
2023-05-18T07:38:57.541Z,1.05
2023-05-18T07:41:26.265Z,0.77
2023-05-18T07:43:55.680Z,0.80
2023-05-18T07:46:24.000Z,0.90
2023-05-18T07:48:52.175Z,0.85
2023-05-18T07:51:21.961Z,1.00
2023-05-18T07:53:50.204Z,1.17
2023-05-18T07:56:18.469Z,1.00
2023-05-18T07:58:46.667Z,1.00
2023-05-18T08:01:14.944Z,1.08
2023-05-18T08:03:43.340Z,0.90
2023-05-18T08:06:11.670Z,1.25
2023-05-18T08:08:41.380Z,0.88
2023-05-18T08:11:09.664Z,1.10
2023-05-18T08:13:37.920Z,1.00
2023-05-18T08:16:11.660Z,1.30
2023-05-18T08:18:41.025Z,1.00
2023-05-18T08:21:10.156Z,1.10
2023-05-18T08:23:41.470Z,0.90
2023-05-18T08:26:11.377Z,1.20
2023-05-18T08:28:41.004Z,0.82
2023-05-18T08:31:09.272Z,0.95
2023-05-18T08:33:37.587Z,1.20
2023-05-18T08:36:06.273Z,0.90
2023-05-18T08:38:34.783Z,1.00
2023-05-18T08:41:13.988Z,0.90
2023-05-18T08:43:47.092Z,1.17
2023-05-18T08:46:21.688Z,1.00
2023-05-18T08:48:53.947Z,0.90
2023-05-18T08:51:23.400Z,1.00
2023-05-18T08:53:54.633Z,0.93
2023-05-18T08:56:26.625Z,1.05
2023-05-18T08:58:57.750Z,1.08
2023-05-18T09:01:29.217Z,1.20
2023-05-18T09:03:59.640Z,1.02
2023-05-18T09:06:28.986Z,1.10
2023-05-18T09:08:58.600Z,0.80
2023-05-18T09:11:28.976Z,0.93
2023-05-18T09:13:58.704Z,0.80
2023-05-18T09:16:27.548Z,1.00
2023-05-18T09:18:56.391Z,1.10
2023-05-18T09:21:24.758Z,0.68
2023-05-18T09:23:53.427Z,0.88
2023-05-18T09:26:22.565Z,0.90
2023-05-18T09:28:55.722Z,0.85
2023-05-18T09:31:27.813Z,0.80
2023-05-18T09:33:56.846Z,0.70
2023-05-18T09:36:28.479Z,1.08
2023-05-18T09:38:58.571Z,0.80
2023-05-18T09:41:28.397Z,0.70
2023-05-18T09:43:58.022Z,0.80
2023-05-18T09:46:26.488Z,0.88
2023-05-18T09:48:56.442Z,1.10
2023-05-18T09:51:25.653Z,0.90
2023-05-18T09:53:58.648Z,0.85
2023-05-18T09:56:27.770Z,0.90
2023-05-18T09:58:57.482Z,0.70
2023-05-18T10:01:26.865Z,0.70
2023-05-18T10:04:04.364Z,0.88
2023-05-18T10:06:32.808Z,0.88
2023-05-18T10:09:04.698Z,0.90
2023-05-18T10:11:34.038Z,0.85
2023-05-18T10:14:03.974Z,0.95
2023-05-18T10:16:33.797Z,0.80
2023-05-18T10:19:03.125Z,0.90
2023-05-18T10:21:32.266Z,0.95
2023-05-18T10:24:04.389Z,1.00
2023-05-18T10:26:38.646Z,0.80
2023-05-18T10:29:09.270Z,1.10
2023-05-18T10:31:39.621Z,0.98
2023-05-18T10:34:10.171Z,0.82
2023-05-18T10:36:39.427Z,0.80
2023-05-18T10:39:09.038Z,0.80
2023-05-18T10:41:39.387Z,0.82
2023-05-18T10:44:09.370Z,0.85
2023-05-18T10:46:38.422Z,0.65
2023-05-18T10:49:13.295Z,0.60
2023-05-18T10:51:44.726Z,0.60
2023-05-18T10:54:14.194Z,1.63
2023-05-18T10:56:45.705Z,0.90
2023-05-18T10:59:16.068Z,0.93
2023-05-18T11:01:44.727Z,0.85
2023-05-18T11:11:53.475Z,0.98
2023-05-18T11:14:30.773Z,0.80
2023-05-18T11:17:19.608Z,0.90
2023-05-18T11:20:15.609Z,0.95
2023-05-18T11:22:47.204Z,2.58
2023-05-18T11:25:37.797Z,1.50
2023-05-18T11:28:08.202Z,1.48
2023-05-18T11:30:52.971Z,0.95
2023-05-18T11:33:28.108Z,0.70
2023-05-18T11:36:02.784Z,0.70
2023-05-18T11:38:49.474Z,0.70
2023-05-18T11:41:33.831Z,0.80
2023-05-18T11:44:17.356Z,0.70
2023-05-18T11:47:01.111Z,0.70
2023-05-18T11:49:31.297Z,0.70
2023-05-18T11:52:04.649Z,0.80
2023-05-18T11:54:41.609Z,1.10
2023-05-18T11:57:11.195Z,0.70
2023-05-18T11:59:41.764Z,0.70
2023-05-18T12:02:13.189Z,1.10
2023-05-18T12:04:46.738Z,0.52
2023-05-18T12:07:15.643Z,0.57
2023-05-18T12:09:45.758Z,0.80
2023-05-18T12:12:17.300Z,0.80
2023-05-18T12:14:46.270Z,1.27
2023-05-18T12:17:15.869Z,0.70
2023-05-18T12:19:45.588Z,0.57
2023-05-18T12:22:13.894Z,0.85
2023-05-18T12:24:43.619Z,0.52
2023-05-18T12:27:13.391Z,0.70
2023-05-18T12:29:42.957Z,0.70
2023-05-18T12:32:12.841Z,0.75
2023-05-18T12:34:45.947Z,0.60
2023-05-18T12:37:14.233Z,0.60
2023-05-18T12:39:42.599Z,0.57
2023-05-18T12:42:18.895Z,0.55
2023-05-18T12:44:48.081Z,0.60
2023-05-18T12:47:16.492Z,0.70
2023-05-18T12:49:51.155Z,0.68
2023-05-18T12:52:22.156Z,0.50
2023-05-18T12:55:00.226Z,0.70
2023-05-18T12:57:31.148Z,0.57
2023-05-18T12:59:59.662Z,0.70
2023-05-18T13:02:33.752Z,0.77
2023-05-18T13:05:09.737Z,0.65
2023-05-18T13:07:39.662Z,0.80
2023-05-18T13:10:12.633Z,0.90
2023-05-18T13:12:43.961Z,0.80
2023-05-18T13:15:16.150Z,0.65
2023-05-18T13:17:59.136Z,0.70
2023-05-18T13:20:37.962Z,0.65
2023-05-18T13:23:08.222Z,0.63
2023-05-18T13:25:36.675Z,0.70
2023-05-18T13:28:05.340Z,0.70
2023-05-18T13:30:34.094Z,1.08
2023-05-18T13:33:02.597Z,0.90
2023-05-18T13:35:31.407Z,0.55
2023-05-18T13:38:01.316Z,0.88
2023-05-18T13:40:29.668Z,0.75
2023-05-18T13:42:57.932Z,0.60
2023-05-18T13:45:26.238Z,0.75
2023-05-18T13:47:54.637Z,0.70
2023-05-18T13:50:23.314Z,0.73
2023-05-18T13:52:51.705Z,0.80
2023-05-18T13:55:21.422Z,0.80
2023-05-18T13:57:49.746Z,1.17
2023-05-18T14:00:20.676Z,0.60
2023-05-18T14:02:49.232Z,0.90
2023-05-18T14:05:17.633Z,1.10
2023-05-18T14:07:46.499Z,0.70
2023-05-18T14:10:14.851Z,1.13
2023-05-18T14:12:44.539Z,0.82
2023-05-18T14:15:14.913Z,0.80
2023-05-18T14:17:43.990Z,0.73
2023-05-18T14:20:16.152Z,0.90
2023-05-18T14:22:47.389Z,0.70
2023-05-18T14:25:16.437Z,1.15
2023-05-18T14:27:46.207Z,0.90
2023-05-18T14:30:14.994Z,1.00
2023-05-18T14:32:43.570Z,1.02
2023-05-18T14:35:13.030Z,0.90
2023-05-18T14:37:41.470Z,0.80
2023-05-18T14:40:10.875Z,1.20
2023-05-18T14:42:39.114Z,0.95
2023-05-18T14:45:10.214Z,0.70
2023-05-18T14:47:38.486Z,0.73
2023-05-18T14:50:07.796Z,1.20
2023-05-18T14:52:35.982Z,0.75
2023-05-18T14:55:04.331Z,1.30
2023-05-18T14:57:32.560Z,0.80
2023-05-18T15:00:01.504Z,0.90
2023-05-18T15:02:31.308Z,0.73
2023-05-18T15:04:59.758Z,1.00
2023-05-18T15:07:28.095Z,0.73
2023-05-18T15:09:56.535Z,1.05
2023-05-18T15:12:24.826Z,1.00
2023-05-18T15:14:53.326Z,1.10
2023-05-18T15:17:22.198Z,1.00
2023-05-18T15:19:51.975Z,0.70
2023-05-18T15:22:20.247Z,1.05
2023-05-18T15:24:48.592Z,0.90
2023-05-18T15:27:16.830Z,0.90
2023-05-18T15:29:45.093Z,0.95
2023-05-18T15:32:13.638Z,1.10
2023-05-18T15:34:42.076Z,1.00
2023-05-18T15:37:11.884Z,1.10
2023-05-18T15:39:40.092Z,0.80
2023-05-18T15:42:08.614Z,0.90
2023-05-18T15:44:36.937Z,1.00
2023-05-18T15:47:06.165Z,0.88
2023-05-18T15:49:34.357Z,0.73
2023-05-18T15:52:03.382Z,0.98
2023-05-18T15:54:33.149Z,0.90
2023-05-18T15:57:01.607Z,0.95
2023-05-18T15:59:30.068Z,1.00
2023-05-18T16:01:58.460Z,0.85
2023-05-18T16:04:26.712Z,0.90
2023-05-18T16:06:55.267Z,0.90
2023-05-18T16:09:23.590Z,0.88
2023-05-18T16:11:54.043Z,1.10
2023-05-18T16:14:22.348Z,1.00
2023-05-18T16:16:50.710Z,1.00
2023-05-18T16:19:19.358Z,1.00
2023-05-18T16:21:47.635Z,0.85
2023-05-18T16:24:16.114Z,1.20
2023-05-18T16:26:46.056Z,1.05
2023-05-18T16:29:15.753Z,1.20
2023-05-18T16:31:44.194Z,1.00
2023-05-18T16:34:12.736Z,1.17
2023-05-18T16:36:41.035Z,1.30
2023-05-18T16:39:09.388Z,1.30
2023-05-18T16:41:37.848Z,1.30
2023-05-18T16:44:06.411Z,1.50
2023-05-18T16:46:38.542Z,1.60
2023-05-18T16:49:06.812Z,1.42
2023-05-18T16:51:44.257Z,1.40
2023-05-18T16:54:12.514Z,1.42
2023-05-18T16:56:41.093Z,1.85
2023-05-18T16:59:09.530Z,1.42
2023-05-18T17:01:39.306Z,1.50
2023-05-18T17:04:07.649Z,1.45
2023-05-18T17:06:36.334Z,1.40
2023-05-18T17:09:06.460Z,1.80
2023-05-18T17:11:35.301Z,1.25
2023-05-18T17:14:04.421Z,1.30
2023-05-18T17:16:38.875Z,1.40
2023-05-18T17:19:09.023Z,1.40
2023-05-18T17:21:37.573Z,1.70
2023-05-18T17:24:06.393Z,1.23
2023-05-18T17:26:34.771Z,1.70
2023-05-18T17:29:03.159Z,1.63
2023-05-18T17:31:31.647Z,1.65
2023-05-18T17:34:00.014Z,1.45
2023-05-18T17:36:29.983Z,1.60
2023-05-18T17:38:58.176Z,1.70
2023-05-18T17:41:26.772Z,1.50
2023-05-18T17:43:55.092Z,1.80
2023-05-18T17:46:23.474Z,2.10
2023-05-18T17:48:51.763Z,1.95
2023-05-18T17:51:20.157Z,1.90
2023-05-18T17:53:49.784Z,2.20
2023-05-18T17:56:18.183Z,2.33
2023-05-18T17:58:46.545Z,2.10
2023-05-18T18:01:14.833Z,2.20
2023-05-18T18:03:43.165Z,2.10
2023-05-18T18:06:11.649Z,1.92
2023-05-18T18:08:39.926Z,2.22
2023-05-18T18:11:10.101Z,2.70
2023-05-18T18:13:38.431Z,2.85
2023-05-18T18:16:07.357Z,2.38
2023-05-18T18:18:37.185Z,28.17
2023-05-18T18:21:06.548Z,25.65
2023-05-18T18:23:34.928Z,8.98
2023-05-18T18:26:04.051Z,11.15
2023-05-18T18:28:34.258Z,7.90
2023-05-18T18:31:03.510Z,5.30
2023-05-18T18:33:32.775Z,4.25
2023-05-18T18:36:01.209Z,3.13
2023-05-18T18:38:29.731Z,2.90
2023-05-18T18:41:01.680Z,3.35
2023-05-18T18:43:30.263Z,3.60
2023-05-18T18:46:00.133Z,4.13
2023-05-18T18:48:28.665Z,3.92
2023-05-18T18:50:57.253Z,4.35
2023-05-18T18:53:25.900Z,6.22
2023-05-18T18:55:54.476Z,7.60
2023-05-18T18:58:24.318Z,8.63
2023-05-18T19:00:52.575Z,5.32
2023-05-18T19:03:22.618Z,6.88
2023-05-18T19:05:52.077Z,6.85
2023-05-18T19:08:20.399Z,8.30
2023-05-18T19:10:48.711Z,11.05
2023-05-18T19:13:17.019Z,8.80
2023-05-18T19:15:45.606Z,9.65
2023-05-18T19:18:14.900Z,7.43
2023-05-18T19:20:44.588Z,7.93
2023-05-18T19:23:12.892Z,10.15
2023-05-18T19:25:41.440Z,11.57
2023-05-18T19:28:09.692Z,7.35
2023-05-18T19:30:38.018Z,7.35
2023-05-18T19:33:06.306Z,7.40
2023-05-18T19:35:34.656Z,8.18
2023-05-18T19:38:04.629Z,5.72
2023-05-18T19:40:33.413Z,11.27
2023-05-18T19:43:01.790Z,8.32
2023-05-18T19:45:30.317Z,5.97
2023-05-18T19:47:58.768Z,4.22
2023-05-18T19:50:27.050Z,13.18
2023-05-18T19:52:55.360Z,19.40
2023-05-18T19:55:24.972Z,27.27
2023-05-18T19:57:53.289Z,30.38
2023-05-18T20:00:21.633Z,27.20
2023-05-18T20:02:49.966Z,14.25
2023-05-18T20:05:19.886Z,4.80
2023-05-18T20:07:48.188Z,3.80
2023-05-18T20:10:18.473Z,3.08
2023-05-18T20:12:48.170Z,3.17
2023-05-18T20:15:16.546Z,3.17
2023-05-18T20:17:44.901Z,3.47
2023-05-18T20:20:13.417Z,11.98
2023-05-18T20:22:41.794Z,10.00
2023-05-18T20:25:12.142Z,5.53
2023-05-18T20:27:40.456Z,8.43
2023-05-18T20:30:11.430Z,4.55
2023-05-18T20:32:39.886Z,4.47
2023-05-18T20:35:08.646Z,4.63
2023-05-18T20:37:37.734Z,3.97
2023-05-18T20:40:09.422Z,3.92
2023-05-18T20:42:40.338Z,4.32
2023-05-18T20:45:12.401Z,4.28
2023-05-18T20:47:42.055Z,3.80
2023-05-18T20:50:10.995Z,3.30
2023-05-18T20:52:39.249Z,3.38
2023-05-18T20:55:09.146Z,3.08
2023-05-18T20:57:38.563Z,3.22
2023-05-18T21:00:10.244Z,3.28
2023-05-18T21:02:38.656Z,3.30
2023-05-18T21:05:07.474Z,3.10
2023-05-18T21:07:38.086Z,3.35
2023-05-18T21:10:07.421Z,3.20
2023-05-18T21:12:35.755Z,3.35
2023-05-18T21:15:04.980Z,3.20
2023-05-18T21:17:34.801Z,3.13
2023-05-18T21:20:03.123Z,3.10
2023-05-18T21:22:31.446Z,3.38
2023-05-18T21:24:59.753Z,2.85
2023-05-18T21:27:29.465Z,3.05
2023-05-18T21:29:57.686Z,3.00
2023-05-18T21:32:26.110Z,3.30
2023-05-18T21:34:55.897Z,3.00
2023-05-18T21:37:25.633Z,3.05
2023-05-18T21:39:53.903Z,2.72
2023-05-18T21:42:22.280Z,3.03
2023-05-18T21:44:50.615Z,2.90
2023-05-18T21:47:18.953Z,2.88
2023-05-18T21:49:47.239Z,3.20
2023-05-18T21:52:16.908Z,2.78
2023-05-18T21:54:45.187Z,3.15
2023-05-18T21:57:13.530Z,2.90
2023-05-18T21:59:41.834Z,2.78
2023-05-18T22:02:10.109Z,3.03
2023-05-18T22:04:38.517Z,3.08
2023-05-18T22:07:06.898Z,2.42
2023-05-18T22:09:36.665Z,2.95
2023-05-18T22:12:05.366Z,3.50
2023-05-18T22:14:33.685Z,2.83
2023-05-18T22:17:02.329Z,3.05
2023-05-18T22:19:30.691Z,3.10
2023-05-18T22:22:00.976Z,3.33
2023-05-18T22:24:29.234Z,3.30
2023-05-18T22:26:58.937Z,3.30
2023-05-18T22:29:27.209Z,3.15
2023-05-18T22:31:55.499Z,3.25
2023-05-18T22:34:23.776Z,2.78
2023-05-18T22:36:52.071Z,2.95
2023-05-18T22:39:20.472Z,2.85
2023-05-18T22:41:48.704Z,2.88
2023-05-18T22:44:18.255Z,2.90
2023-05-18T22:46:47.280Z,2.90
2023-05-18T22:49:16.827Z,2.90
2023-05-18T22:51:45.860Z,2.63
2023-05-18T22:54:14.109Z,2.83
2023-05-18T22:56:42.388Z,2.55
2023-05-18T22:59:12.036Z,2.30
2023-05-18T23:01:42.019Z,2.95
2023-05-18T23:04:10.283Z,2.70
2023-05-18T23:06:41.212Z,2.45
2023-05-18T23:09:09.493Z,2.35
2023-05-18T23:11:38.124Z,2.40
2023-05-18T23:14:06.405Z,2.40
2023-05-18T23:16:34.681Z,2.30
2023-05-18T23:19:04.449Z,2.17
2023-05-18T23:21:32.934Z,2.35
2023-05-18T23:24:01.332Z,2.10
2023-05-18T23:26:29.629Z,1.75
2023-05-18T23:28:57.902Z,1.90
2023-05-18T23:31:26.237Z,2.17
2023-05-18T23:33:55.042Z,1.70
2023-05-18T23:36:27.476Z,2.13
2023-05-18T23:38:59.076Z,1.73
2023-05-18T23:41:28.197Z,1.88
2023-05-18T23:43:57.834Z,2.08
2023-05-18T23:46:26.967Z,1.98
2023-05-18T23:48:57.879Z,1.75
2023-05-18T23:51:30.968Z,1.92
2023-05-18T23:54:00.630Z,1.65
2023-05-18T23:56:29.664Z,2.10
2023-05-18T23:58:58.332Z,1.83
